Weather at Hvar Airport

Public forecast

Using degrees Celsius for public forecast. Weather courtesy of forecast.io.

Closest aviation weather report (METAR) to Hvar Airport

Closest report is Brač Airport, 6.6 nm (12.2 km) NNE. Retrieved 2022/08/13 14:30 UTC (19 minutes ago):

LDSB 131430Z 03006KT 9999 FEW057 18/13 Q1012

Closest aviation forecast (TAF) to Hvar Airport

Closest forecast is Brač Airport, 6.6 nm (12.2 km) NNE. Retrieved 2022/08/13 12:27 UTC (2 hours ago):

TAF LDSB 131125Z 1312/1412 21008KT 9999 FEW015 SCT030 TX27/1411Z TN17/1400Z BECMG 1312/1314 30008KT PROB40 TEMPO 1312/1321 VRB15G25KT -TSRA FEW030CB BKN033 TEMPO 1321/1407 04010KT BECMG 1410/1412 22009KT